Nedlloyd Mercator — PCIM — position and weather

sailwx.info

Track history (hours):
 
Tides and Currents Weather Stations Pressure Air Temp Water Temp Dewpoint Dewpoint Depression Visibility Wind Speed Wind Dir Waves Ship Positions

Nedlloyd Mercator

Last reported at 2015-Mar-03 00:27 UTC. Time now 2015-Mar-03 00:43 UTC.
Position N 01°15' E 103°54'.

Length 278 m; beam 43 m.

Type: Cargo ship. MMSI: 246433000.

Date/timePositionNaut miles runAvg speedWind from/ knotsBaromVisibWave heightAir tempDewpointWater temp
2015-Mar-03 00:27N 01°15' E 103°54'0 0.0
2015-Mar-02 23:33N 01°15' E 103°54'0 0.0
2015-Mar-02 22:33N 01°15' E 103°54'0 0.0
2015-Mar-02 21:33N 01°15' E 103°54'0 0.0
2015-Mar-02 20:33N 01°15' E 103°54'0 0.0
2015-Mar-02 19:33N 01°15' E 103°54'0 0.0
2015-Mar-02 18:33N 01°15' E 103°54'0 0.0
2015-Mar-02 17:33N 01°15' E 103°54'0 0.0
2015-Mar-02 16:33N 01°15' E 103°54'0 0.0
2015-Mar-02 15:30N 01°15' E 103°54'0 0.0
2015-Mar-02 14:33N 01°15' E 103°54'0 0.0
2015-Mar-02 13:33N 01°15' E 103°54'0 0.0
2015-Mar-02 12:21N 01°15' E 103°54'0 0.1
2015-Mar-02 11:21N 01°15' E 103°54'0 0.1
2015-Mar-02 10:15N 01°15' E 103°54'0 0.2
2015-Mar-02 09:27N 01°15' E 103°54'0 0.1
2015-Mar-02 07:27N 01°15' E 103°54'0 0.1
2015-Mar-02 04:18N 01°15' E 103°54'0 0.1
2015-Mar-02 03:26N 01°15' E 103°54'0 0.0
2015-Mar-02 02:32N 01°15' E 103°54'0 0.1
2015-Mar-02 01:29N 01°15' E 103°54'0 0.0
2015-Mar-02 00:32N 01°15' E 103°54'0 0.0
2015-Mar-01 23:32N 01°15' E 103°54'4 3.8
2015-Mar-01 22:32N 01°12' E 103°51'7 3.6
2015-Mar-01 20:33N 01°17' E 103°45'0 0.0
2015-Mar-01 19:33N 01°17' E 103°45'0 0.0
2015-Mar-01 17:18N 01°17' E 103°45'0 0.0
2015-Mar-01 16:18N 01°17' E 103°45'0 0.0
2015-Mar-01 15:15N 01°17' E 103°45'0 0.0
2015-Mar-01 14:06N 01°17' E 103°45'0 0.0
2015-Mar-01 13:06N 01°17' E 103°45'0 0.0
2015-Mar-01 12:33N 01°17' E 103°45'0 0.0
2015-Mar-01 10:33N 01°17' E 103°45'0 0.0
2015-Mar-01 09:33N 01°17' E 103°45'0 0.0
2015-Mar-01 07:21N 01°17' E 103°45'0 0.0
2015-Mar-01 06:21N 01°17' E 103°45'0 0.0
2015-Mar-01 05:15N 01°17' E 103°45'0 0.0
2015-Mar-01 04:27N 01°17' E 103°45'0 0.0
2015-Mar-01 01:15N 01°17' E 103°45'0 0.0
2015-Mar-01 00:33N 01°17' E 103°45'0 0.0
2015-Feb-28 23:33N 01°17' E 103°45'0 0.0
2015-Feb-28 22:33N 01°17' E 103°45'0 0.0
2015-Feb-28 21:26N 01°17' E 103°45'0 0.0
2015-Feb-28 20:32N 01°17' E 103°45'0 0.0
2015-Feb-28 19:32N 01°17' E 103°45'0 0.0
2015-Feb-28 18:32N 01°17' E 103°45'0 0.0
2015-Feb-28 17:32N 01°17' E 103°45'0 0.0
2015-Feb-28 16:32N 01°17' E 103°45'0 0.0
2015-Feb-28 15:26N 01°17' E 103°45'0 0.0
2015-Feb-28 14:14N 01°17' E 103°45'0 0.0
2015-Feb-28 12:32N 01°17' E 103°45'0 0.0
2015-Feb-28 11:08N 01°17' E 103°45'0 0.1
2015-Feb-28 10:32N 01°17' E 103°45'2 2.3
2015-Feb-28 09:33N 01°15' E 103°47'1 0.9
2015-Feb-28 08:24N 01°14' E 103°47'0 0.1
2015-Feb-28 07:33N 01°14' E 103°47'7 6.6
2015-Feb-28 06:32N 01°13' E 103°41'66 6.5
2015-Feb-27 20:16N 01°42' E 102°41'1011.7
2015-Feb-27 19:23N 01°46' E 102°31'1311.6
2015-Feb-27 18:15N 01°51' E 102°19'  
2015-Feb-21 17:33N 08°06' E 076°48'1717.2
2015-Feb-21 16:33N 08°18' E 076°36'  
Track history (hours):
 
Tides and Currents Weather Stations Pressure Air Temp Water Temp Dewpoint Dewpoint Depression Visibility Wind Speed Wind Dir Waves Ship Positions

Nedlloyd Mercator

Last reported at 2015-Mar-03 00:27 UTC. Time now 2015-Mar-03 00:43 UTC.
Position N 01°15' E 103°54'.

Length 278 m; beam 43 m.

Type: Cargo ship. MMSI: 246433000.

Date/timePositionNaut miles runAvg speedWind from/ knotsBaromVisibWave heightAir tempDewpointWater temp
2015-Mar-03 00:27N 01°15' E 103°54'0 0.0
2015-Mar-02 23:33N 01°15' E 103°54'0 0.0
2015-Mar-02 22:33N 01°15' E 103°54'0 0.0
2015-Mar-02 21:33N 01°15' E 103°54'0 0.0
2015-Mar-02 20:33N 01°15' E 103°54'0 0.0
2015-Mar-02 19:33N 01°15' E 103°54'0 0.0
2015-Mar-02 18:33N 01°15' E 103°54'0 0.0
2015-Mar-02 17:33N 01°15' E 103°54'0 0.0
2015-Mar-02 16:33N 01°15' E 103°54'0 0.0
2015-Mar-02 15:30N 01°15' E 103°54'0 0.0
2015-Mar-02 14:33N 01°15' E 103°54'0 0.0
2015-Mar-02 13:33N 01°15' E 103°54'0 0.0
2015-Mar-02 12:21N 01°15' E 103°54'0 0.1
2015-Mar-02 11:21N 01°15' E 103°54'0 0.1
2015-Mar-02 10:15N 01°15' E 103°54'0 0.2
2015-Mar-02 09:27N 01°15' E 103°54'0 0.1
2015-Mar-02 07:27N 01°15' E 103°54'0 0.1
2015-Mar-02 04:18N 01°15' E 103°54'0 0.1
2015-Mar-02 03:26N 01°15' E 103°54'0 0.0
2015-Mar-02 02:32N 01°15' E 103°54'0 0.1
2015-Mar-02 01:29N 01°15' E 103°54'0 0.0
2015-Mar-02 00:32N 01°15' E 103°54'0 0.0
2015-Mar-01 23:32N 01°15' E 103°54'4 3.8
2015-Mar-01 22:32N 01°12' E 103°51'7 3.6
2015-Mar-01 20:33N 01°17' E 103°45'0 0.0
2015-Mar-01 19:33N 01°17' E 103°45'0 0.0
2015-Mar-01 17:18N 01°17' E 103°45'0 0.0
2015-Mar-01 16:18N 01°17' E 103°45'0 0.0
2015-Mar-01 15:15N 01°17' E 103°45'0 0.0
2015-Mar-01 14:06N 01°17' E 103°45'0 0.0
2015-Mar-01 13:06N 01°17' E 103°45'0 0.0
2015-Mar-01 12:33N 01°17' E 103°45'0 0.0
2015-Mar-01 10:33N 01°17' E 103°45'0 0.0
2015-Mar-01 09:33N 01°17' E 103°45'0 0.0
2015-Mar-01 07:21N 01°17' E 103°45'0 0.0
2015-Mar-01 06:21N 01°17' E 103°45'0 0.0
2015-Mar-01 05:15N 01°17' E 103°45'0 0.0
2015-Mar-01 04:27N 01°17' E 103°45'0 0.0
2015-Mar-01 01:15N 01°17' E 103°45'0 0.0
2015-Mar-01 00:33N 01°17' E 103°45'0 0.0
2015-Feb-28 23:33N 01°17' E 103°45'0 0.0
2015-Feb-28 22:33N 01°17' E 103°45'0 0.0
2015-Feb-28 21:26N 01°17' E 103°45'0 0.0
2015-Feb-28 20:32N 01°17' E 103°45'0 0.0
2015-Feb-28 19:32N 01°17' E 103°45'0 0.0
2015-Feb-28 18:32N 01°17' E 103°45'0 0.0
2015-Feb-28 17:32N 01°17' E 103°45'0 0.0
2015-Feb-28 16:32N 01°17' E 103°45'0 0.0
2015-Feb-28 15:26N 01°17' E 103°45'0 0.0
2015-Feb-28 14:14N 01°17' E 103°45'0 0.0
2015-Feb-28 12:32N 01°17' E 103°45'0 0.0
2015-Feb-28 11:08N 01°17' E 103°45'0 0.1
2015-Feb-28 10:32N 01°17' E 103°45'2 2.3
2015-Feb-28 09:33N 01°15' E 103°47'1 0.9
2015-Feb-28 08:24N 01°14' E 103°47'0 0.1
2015-Feb-28 07:33N 01°14' E 103°47'7 6.6
2015-Feb-28 06:32N 01°13' E 103°41'66 6.5
2015-Feb-27 20:16N 01°42' E 102°41'1011.7
2015-Feb-27 19:23N 01°46' E 102°31'1311.6
2015-Feb-27 18:15N 01°51' E 102°19'  
2015-Feb-21 17:33N 08°06' E 076°48'1717.2
2015-Feb-21 16:33N 08°18' E 076°36'  

Dump ship's entire track history